sensor_id;sensor_type;location;lat;lon;timestamp;temperature;humidity
16243;DHT22;11719;51.052;6.982;2023-03-01T00:01:04;4.40;99.90
16243;DHT22;11719;51.052;6.982;2023-03-01T00:03:32;4.60;99.90
16243;DHT22;11719;51.052;6.982;2023-03-01T00:05:59;4.60;99.90
16243;DHT22;11719;51.052;6.982;2023-03-01T00:08:25;4.60;99.90
16243;DHT22;11719;51.052;6.982;2023-03-01T00:11:11;4.60;99.90
16243;DHT22;11719;51.052;6.982;2023-03-01T00:13:41;4.60;99.90
16243;DHT22;11719;51.052;6.982;2023-03-01T00:16:13;4.70;99.90
16243;DHT22;11719;51.052;6.982;2023-03-01T00:18:43;4.90;99.90
16243;DHT22;11719;51.052;6.982;2023-03-01T00:21:09;5.00;99.90
16243;DHT22;11719;51.052;6.982;2023-03-01T00:23:36;5.10;99.90
16243;DHT22;11719;51.052;6.982;2023-03-01T00:26:06;5.20;99.90
16243;DHT22;11719;51.052;6.982;2023-03-01T00:28:34;5.20;99.90
16243;DHT22;11719;51.052;6.982;2023-03-01T00:31:11;5.30;99.90
16243;DHT22;11719;51.052;6.982;2023-03-01T00:33:39;5.50;99.90
16243;DHT22;11719;51.052;6.982;2023-03-01T00:36:06;5.70;99.90
16243;DHT22;11719;51.052;6.982;2023-03-01T00:38:40;5.70;99.90
16243;DHT22;11719;51.052;6.982;2023-03-01T00:41:18;5.70;99.90
16243;DHT22;11719;51.052;6.982;2023-03-01T00:43:45;5.80;99.60
16243;DHT22;11719;51.052;6.982;2023-03-01T00:46:13;5.70;99.60
16243;DHT22;11719;51.052;6.982;2023-03-01T00:48:41;5.60;99.90
16243;DHT22;11719;51.052;6.982;2023-03-01T00:51:19;5.40;99.90
16243;DHT22;11719;51.052;6.982;2023-03-01T00:53:47;5.30;99.90
16243;DHT22;11719;51.052;6.982;2023-03-01T00:56:15;5.10;99.90
16243;DHT22;11719;51.052;6.982;2023-03-01T00:58:42;4.90;99.90
16243;DHT22;11719;51.052;6.982;2023-03-01T01:01:10;4.80;99.90
16243;DHT22;11719;51.052;6.982;2023-03-01T01:03:45;4.70;99.90
16243;DHT22;11719;51.052;6.982;2023-03-01T01:06:23;4.60;99.90
16243;DHT22;11719;51.052;6.982;2023-03-01T01:08:54;4.40;99.90
16243;DHT22;11719;51.052;6.982;2023-03-01T01:11:21;4.30;99.90
16243;DHT22;11719;51.052;6.982;2023-03-01T01:13:49;4.30;99.90
16243;DHT22;11719;51.052;6.982;2023-03-01T01:16:16;4.20;99.90
16243;DHT22;11719;51.052;6.982;2023-03-01T01:18:44;4.10;99.90
16243;DHT22;11719;51.052;6.982;2023-03-01T01:21:13;4.00;99.90
16243;DHT22;11719;51.052;6.982;2023-03-01T01:23:41;3.90;99.90
16243;DHT22;11719;51.052;6.982;2023-03-01T01:26:30;3.90;99.90
16243;DHT22;11719;51.052;6.982;2023-03-01T01:28:57;3.80;99.90
16243;DHT22;11719;51.052;6.982;2023-03-01T01:31:23;3.60;99.90
16243;DHT22;11719;51.052;6.982;2023-03-01T01:33:50;3.50;99.90
16243;DHT22;11719;51.052;6.982;2023-03-01T01:36:17;3.50;99.90
16243;DHT22;11719;51.052;6.982;2023-03-01T01:38:42;3.50;99.90
16243;DHT22;11719;51.052;6.982;2023-03-01T01:41:09;3.50;99.90
16243;DHT22;11719;51.052;6.982;2023-03-01T01:43:42;3.50;99.90
16243;DHT22;11719;51.052;6.982;2023-03-01T01:46:25;3.40;99.90
16243;DHT22;11719;51.052;6.982;2023-03-01T01:49:03;3.30;99.90
16243;DHT22;11719;51.052;6.982;2023-03-01T01:51:39;3.40;99.90
16243;DHT22;11719;51.052;6.982;2023-03-01T01:54:17;3.40;99.90
16243;DHT22;11719;51.052;6.982;2023-03-01T01:56:50;3.30;99.90
16243;DHT22;11719;51.052;6.982;2023-03-01T01:59:19;3.20;99.90
16243;DHT22;11719;51.052;6.982;2023-03-01T02:01:51;3.10;99.90
16243;DHT22;11719;51.052;6.982;2023-03-01T02:04:17;3.20;99.90
16243;DHT22;11719;51.052;6.982;2023-03-01T02:06:58;3.20;99.90
16243;DHT22;11719;51.052;6.982;2023-03-01T02:09:28;3.20;99.90
16243;DHT22;11719;51.052;6.982;2023-03-01T02:11:54;3.20;99.90
16243;DHT22;11719;51.052;6.982;2023-03-01T02:14:20;3.20;99.90
16243;DHT22;11719;51.052;6.982;2023-03-01T02:16:46;3.20;99.90
16243;DHT22;11719;51.052;6.982;2023-03-01T02:19:25;3.20;99.90
16243;DHT22;11719;51.052;6.982;2023-03-01T02:22:10;3.20;99.90
16243;DHT22;11719;51.052;6.982;2023-03-01T02:27:15;3.20;99.90
16243;DHT22;11719;51.052;6.982;2023-03-01T02:29:42;3.20;99.90
16243;DHT22;11719;51.052;6.982;2023-03-01T02:32:10;3.10;99.90
16243;DHT22;11719;51.052;6.982;2023-03-01T02:34:36;3.10;99.90
16243;DHT22;11719;51.052;6.982;2023-03-01T02:37:13;3.00;99.90
16243;DHT22;11719;51.052;6.982;2023-03-01T02:39:44;3.10;99.90
16243;DHT22;11719;51.052;6.982;2023-03-01T02:42:19;3.00;99.90
16243;DHT22;11719;51.052;6.982;2023-03-01T02:44:49;3.10;99.90
16243;DHT22;11719;51.052;6.982;2023-03-01T02:47:15;3.10;99.90
16243;DHT22;11719;51.052;6.982;2023-03-01T02:49:41;3.10;99.90
16243;DHT22;11719;51.052;6.982;2023-03-01T02:57:43;2.80;99.90
16243;DHT22;11719;51.052;6.982;2023-03-01T03:00:17;2.80;99.90
16243;DHT22;11719;51.052;6.982;2023-03-01T03:02:46;2.80;99.90
16243;DHT22;11719;51.052;6.982;2023-03-01T03:05:16;2.80;99.90
16243;DHT22;11719;51.052;6.982;2023-03-01T03:07:47;2.90;99.90
16243;DHT22;11719;51.052;6.982;2023-03-01T03:10:26;2.70;99.90
16243;DHT22;11719;51.052;6.982;2023-03-01T03:12:59;2.70;99.90
16243;DHT22;11719;51.052;6.982;2023-03-01T03:15:27;2.80;99.90
16243;DHT22;11719;51.052;6.982;2023-03-01T03:17:55;2.80;99.90
16243;DHT22;11719;51.052;6.982;2023-03-01T03:20:26;2.80;99.90
16243;DHT22;11719;51.052;6.982;2023-03-01T03:22:57;2.80;99.90
16243;DHT22;11719;51.052;6.982;2023-03-01T03:25:27;2.80;99.90
16243;DHT22;11719;51.052;6.982;2023-03-01T03:27:53;2.80;99.90
16243;DHT22;11719;51.052;6.982;2023-03-01T03:30:31;2.80;99.90
16243;DHT22;11719;51.052;6.982;2023-03-01T03:32:58;2.90;99.90
16243;DHT22;11719;51.052;6.982;2023-03-01T03:35:28;2.90;99.90
16243;DHT22;11719;51.052;6.982;2023-03-01T03:37:57;2.90;99.90
16243;DHT22;11719;51.052;6.982;2023-03-01T03:43:01;2.80;99.90
16243;DHT22;11719;51.052;6.982;2023-03-01T03:45:30;2.80;99.90
16243;DHT22;11719;51.052;6.982;2023-03-01T03:47:59;2.80;99.90
16243;DHT22;11719;51.052;6.982;2023-03-01T03:50:26;2.70;99.90
16243;DHT22;11719;51.052;6.982;2023-03-01T03:52:52;2.60;99.90
16243;DHT22;11719;51.052;6.982;2023-03-01T03:55:18;2.60;99.90
16243;DHT22;11719;51.052;6.982;2023-03-01T03:57:46;2.50;99.90
16243;DHT22;11719;51.052;6.982;2023-03-01T04:00:21;2.50;99.90
16243;DHT22;11719;51.052;6.982;2023-03-01T04:02:49;2.50;99.90
16243;DHT22;11719;51.052;6.982;2023-03-01T04:05:18;2.50;99.90
16243;DHT22;11719;51.052;6.982;2023-03-01T04:07:45;2.50;99.90
16243;DHT22;11719;51.052;6.982;2023-03-01T04:10:13;2.40;99.90
16243;DHT22;11719;51.052;6.982;2023-03-01T04:12:43;2.50;99.90
16243;DHT22;11719;51.052;6.982;2023-03-01T04:15:10;2.60;99.90
16243;DHT22;11719;51.052;6.982;2023-03-01T04:17:44;2.60;99.90
16243;DHT22;11719;51.052;6.982;2023-03-01T04:20:16;2.60;99.90
16243;DHT22;11719;51.052;6.982;2023-03-01T04:22:44;2.60;99.90
16243;DHT22;11719;51.052;6.982;2023-03-01T04:25:13;2.50;99.90
16243;DHT22;11719;51.052;6.982;2023-03-01T04:27:40;2.40;99.90
16243;DHT22;11719;51.052;6.982;2023-03-01T04:30:06;2.30;99.90
16243;DHT22;11719;51.052;6.982;2023-03-01T04:32:33;2.30;99.90
16243;DHT22;11719;51.052;6.982;2023-03-01T04:35:00;2.30;99.90
16243;DHT22;11719;51.052;6.982;2023-03-01T04:37:26;2.30;99.90
16243;DHT22;11719;51.052;6.982;2023-03-01T04:39:52;2.30;99.90
16243;DHT22;11719;51.052;6.982;2023-03-01T04:42:19;2.20;99.90
16243;DHT22;11719;51.052;6.982;2023-03-01T04:44:45;2.10;99.90
16243;DHT22;11719;51.052;6.982;2023-03-01T04:47:11;2.10;99.90
16243;DHT22;11719;51.052;6.982;2023-03-01T04:49:38;2.10;99.90
16243;DHT22;11719;51.052;6.982;2023-03-01T04:52:04;2.10;99.90
16243;DHT22;11719;51.052;6.982;2023-03-01T04:54:31;2.10;99.90
16243;DHT22;11719;51.052;6.982;2023-03-01T04:56:58;2.10;99.90
16243;DHT22;11719;51.052;6.982;2023-03-01T04:59:24;2.00;99.90
16243;DHT22;11719;51.052;6.982;2023-03-01T05:01:51;2.00;99.90
16243;DHT22;11719;51.052;6.982;2023-03-01T05:04:24;2.10;99.90
16243;DHT22;11719;51.052;6.982;2023-03-01T05:06:50;2.20;99.90
16243;DHT22;11719;51.052;6.982;2023-03-01T05:09:16;2.00;99.90
16243;DHT22;11719;51.052;6.982;2023-03-01T05:11:42;2.00;99.90
16243;DHT22;11719;51.052;6.982;2023-03-01T05:14:09;1.90;99.90
16243;DHT22;11719;51.052;6.982;2023-03-01T05:16:36;1.90;99.90
16243;DHT22;11719;51.052;6.982;2023-03-01T05:19:03;1.90;99.90
16243;DHT22;11719;51.052;6.982;2023-03-01T05:21:41;1.80;99.90
16243;DHT22;11719;51.052;6.982;2023-03-01T05:24:27;1.80;99.90
16243;DHT22;11719;51.052;6.982;2023-03-01T05:26:54;1.70;99.90
16243;DHT22;11719;51.052;6.982;2023-03-01T05:29:21;1.70;99.90
16243;DHT22;11719;51.052;6.982;2023-03-01T05:32:00;1.70;99.90
16243;DHT22;11719;51.052;6.982;2023-03-01T05:34:34;1.70;99.90
16243;DHT22;11719;51.052;6.982;2023-03-01T05:37:01;1.60;99.90
16243;DHT22;11719;51.052;6.982;2023-03-01T05:39:29;1.60;99.90
16243;DHT22;11719;51.052;6.982;2023-03-01T05:41:56;1.60;99.90
16243;DHT22;11719;51.052;6.982;2023-03-01T05:44:24;1.60;99.90
16243;DHT22;11719;51.052;6.982;2023-03-01T05:46:51;1.60;99.90
16243;DHT22;11719;51.052;6.982;2023-03-01T05:49:18;1.70;99.90
16243;DHT22;11719;51.052;6.982;2023-03-01T05:51:48;1.70;99.90
16243;DHT22;11719;51.052;6.982;2023-03-01T05:54:15;1.70;99.90
16243;DHT22;11719;51.052;6.982;2023-03-01T05:56:41;1.70;99.90
16243;DHT22;11719;51.052;6.982;2023-03-01T05:59:07;1.70;99.90
16243;DHT22;11719;51.052;6.982;2023-03-01T06:01:34;1.70;99.90
16243;DHT22;11719;51.052;6.982;2023-03-01T06:04:00;1.70;99.90
16243;DHT22;11719;51.052;6.982;2023-03-01T06:06:27;1.60;99.90
16243;DHT22;11719;51.052;6.982;2023-03-01T06:08:53;1.70;99.90
16243;DHT22;11719;51.052;6.982;2023-03-01T06:11:20;1.70;99.90
16243;DHT22;11719;51.052;6.982;2023-03-01T06:13:46;1.70;99.90
16243;DHT22;11719;51.052;6.982;2023-03-01T06:16:13;1.70;99.90
16243;DHT22;11719;51.052;6.982;2023-03-01T06:18:39;1.80;99.90
16243;DHT22;11719;51.052;6.982;2023-03-01T06:21:06;1.80;99.90
16243;DHT22;11719;51.052;6.982;2023-03-01T06:23:33;1.80;99.90
16243;DHT22;11719;51.052;6.982;2023-03-01T06:25:59;1.80;99.90
16243;DHT22;11719;51.052;6.982;2023-03-01T06:28:25;1.80;99.90
16243;DHT22;11719;51.052;6.982;2023-03-01T06:30:51;1.80;99.90
16243;DHT22;11719;51.052;6.982;2023-03-01T06:33:18;1.90;99.90
16243;DHT22;11719;51.052;6.982;2023-03-01T06:35:46;1.70;99.90
16243;DHT22;11719;51.052;6.982;2023-03-01T06:38:12;1.80;99.90
16243;DHT22;11719;51.052;6.982;2023-03-01T06:40:40;1.70;99.90
16243;DHT22;11719;51.052;6.982;2023-03-01T06:43:07;1.70;99.90
16243;DHT22;11719;51.052;6.982;2023-03-01T06:45:33;1.60;99.90
16243;DHT22;11719;51.052;6.982;2023-03-01T06:48:06;1.60;99.90
16243;DHT22;11719;51.052;6.982;2023-03-01T06:50:35;1.60;99.90
16243;DHT22;11719;51.052;6.982;2023-03-01T06:53:01;1.70;99.90
16243;DHT22;11719;51.052;6.982;2023-03-01T06:55:27;1.70;99.90
16243;DHT22;11719;51.052;6.982;2023-03-01T06:58:00;1.70;99.90
16243;DHT22;11719;51.052;6.982;2023-03-01T07:00:27;1.80;99.90
16243;DHT22;11719;51.052;6.982;2023-03-01T07:02:54;1.80;99.90
16243;DHT22;11719;51.052;6.982;2023-03-01T07:05:20;1.70;99.90
16243;DHT22;11719;51.052;6.982;2023-03-01T07:07:46;1.70;99.90
16243;DHT22;11719;51.052;6.982;2023-03-01T07:10:12;1.70;99.90
16243;DHT22;11719;51.052;6.982;2023-03-01T07:12:38;1.80;99.90
16243;DHT22;11719;51.052;6.982;2023-03-01T07:15:04;1.80;99.90
16243;DHT22;11719;51.052;6.982;2023-03-01T07:17:30;1.80;99.90
16243;DHT22;11719;51.052;6.982;2023-03-01T07:19:56;1.90;99.90
16243;DHT22;11719;51.052;6.982;2023-03-01T07:22:22;2.00;99.90
16243;DHT22;11719;51.052;6.982;2023-03-01T07:24:48;2.00;99.90
16243;DHT22;11719;51.052;6.982;2023-03-01T07:27:14;2.00;99.90
16243;DHT22;11719;51.052;6.982;2023-03-01T07:29:40;2.00;99.90
16243;DHT22;11719;51.052;6.982;2023-03-01T07:32:07;2.00;99.90
16243;DHT22;11719;51.052;6.982;2023-03-01T07:34:33;2.10;99.90
16243;DHT22;11719;51.052;6.982;2023-03-01T07:36:58;2.10;99.90
16243;DHT22;11719;51.052;6.982;2023-03-01T07:39:24;2.20;99.90
16243;DHT22;11719;51.052;6.982;2023-03-01T07:41:50;2.40;99.90
16243;DHT22;11719;51.052;6.982;2023-03-01T07:44:16;2.50;99.90
16243;DHT22;11719;51.052;6.982;2023-03-01T07:46:43;2.50;99.90
16243;DHT22;11719;51.052;6.982;2023-03-01T07:49:09;2.60;99.90
16243;DHT22;11719;51.052;6.982;2023-03-01T07:51:35;2.80;99.90
16243;DHT22;11719;51.052;6.982;2023-03-01T07:54:00;2.80;99.90
16243;DHT22;11719;51.052;6.982;2023-03-01T07:56:27;2.80;99.90
16243;DHT22;11719;51.052;6.982;2023-03-01T07:58:53;2.90;99.90
16243;DHT22;11719;51.052;6.982;2023-03-01T08:01:20;2.90;99.90
16243;DHT22;11719;51.052;6.982;2023-03-01T08:03:46;3.00;99.90
16243;DHT22;11719;51.052;6.982;2023-03-01T08:06:14;3.20;99.90
16243;DHT22;11719;51.052;6.982;2023-03-01T08:08:41;3.40;99.90
16243;DHT22;11719;51.052;6.982;2023-03-01T08:11:09;3.40;99.90
16243;DHT22;11719;51.052;6.982;2023-03-01T08:13:36;3.30;99.90
16243;DHT22;11719;51.052;6.982;2023-03-01T08:16:06;3.50;99.90
16243;DHT22;11719;51.052;6.982;2023-03-01T08:18:34;3.90;99.90
16243;DHT22;11719;51.052;6.982;2023-03-01T08:21:04;4.80;99.90
16243;DHT22;11719;51.052;6.982;2023-03-01T08:23:35;6.00;99.90
16243;DHT22;11719;51.052;6.982;2023-03-01T08:28:39;6.90;99.90
16243;DHT22;11719;51.052;6.982;2023-03-01T08:33:46;8.60;99.90
16243;DHT22;11719;51.052;6.982;2023-03-01T08:36:24;9.70;99.90
16243;DHT22;11719;51.052;6.982;2023-03-01T08:38:51;10.60;98.60
16243;DHT22;11719;51.052;6.982;2023-03-01T08:41:17;11.20;99.40
16243;DHT22;11719;51.052;6.982;2023-03-01T08:43:43;11.60;97.30
16243;DHT22;11719;51.052;6.982;2023-03-01T08:46:09;12.10;96.90
16243;DHT22;11719;51.052;6.982;2023-03-01T08:48:35;12.40;96.00
16243;DHT22;11719;51.052;6.982;2023-03-01T08:51:15;12.80;95.20
16243;DHT22;11719;51.052;6.982;2023-03-01T08:53:42;12.80;93.80
16243;DHT22;11719;51.052;6.982;2023-03-01T08:56:09;12.90;86.40
16243;DHT22;11719;51.052;6.982;2023-03-01T08:58:36;12.80;93.30
16243;DHT22;11719;51.052;6.982;2023-03-01T09:01:14;12.90;94.00
16243;DHT22;11719;51.052;6.982;2023-03-01T09:03:41;13.20;90.70
16243;DHT22;11719;51.052;6.982;2023-03-01T09:06:08;13.30;92.90
16243;DHT22;11719;51.052;6.982;2023-03-01T09:08:38;13.50;92.60
16243;DHT22;11719;51.052;6.982;2023-03-01T09:11:08;13.70;92.20
16243;DHT22;11719;51.052;6.982;2023-03-01T09:13:35;13.70;91.50
16243;DHT22;11719;51.052;6.982;2023-03-01T09:16:02;13.70;91.30
16243;DHT22;11719;51.052;6.982;2023-03-01T09:18:29;13.80;91.80
16243;DHT22;11719;51.052;6.982;2023-03-01T09:23:36;14.00;91.50
16243;DHT22;11719;51.052;6.982;2023-03-01T09:26:08;14.00;90.60
16243;DHT22;11719;51.052;6.982;2023-03-01T09:28:35;14.10;90.60
16243;DHT22;11719;51.052;6.982;2023-03-01T09:31:02;14.10;90.80
16243;DHT22;11719;51.052;6.982;2023-03-01T09:33:30;14.10;90.90
16243;DHT22;11719;51.052;6.982;2023-03-01T09:36:00;14.10;90.30
16243;DHT22;11719;51.052;6.982;2023-03-01T09:38:27;14.10;89.30
16243;DHT22;11719;51.052;6.982;2023-03-01T09:40:53;14.10;90.10
16243;DHT22;11719;51.052;6.982;2023-03-01T09:46:21;14.20;90.60
16243;DHT22;11719;51.052;6.982;2023-03-01T09:48:56;14.10;77.80
16243;DHT22;11719;51.052;6.982;2023-03-01T09:51:35;13.80;90.40
16243;DHT22;11719;51.052;6.982;2023-03-01T09:54:02;13.70;90.50
16243;DHT22;11719;51.052;6.982;2023-03-01T09:56:36;13.80;90.90
16243;DHT22;11719;51.052;6.982;2023-03-01T10:04:44;13.70;84.70
16243;DHT22;11719;51.052;6.982;2023-03-01T10:09:51;13.40;90.90
16243;DHT22;11719;51.052;6.982;2023-03-01T10:12:20;13.10;83.60
16243;DHT22;11719;51.052;6.982;2023-03-01T10:15:14;13.10;91.20
16243;DHT22;11719;51.052;6.982;2023-03-01T10:17:50;13.40;91.40
16243;DHT22;11719;51.052;6.982;2023-03-01T10:22:51;13.60;85.40
16243;DHT22;11719;51.052;6.982;2023-03-01T10:28:37;13.70;91.10
16243;DHT22;11719;51.052;6.982;2023-03-01T10:31:38;13.80;75.90
16243;DHT22;11719;51.052;6.982;2023-03-01T10:34:13;12.80;75.60
16243;DHT22;11719;51.052;6.982;2023-03-01T10:36:40;12.00;92.80
16243;DHT22;11719;51.052;6.982;2023-03-01T10:39:16;12.80;92.70
16243;DHT22;11719;51.052;6.982;2023-03-01T10:42:03;13.30;90.50
16243;DHT22;11719;51.052;6.982;2023-03-01T10:44:46;13.50;89.00
16243;DHT22;11719;51.052;6.982;2023-03-01T10:47:22;13.70;90.60
16243;DHT22;11719;51.052;6.982;2023-03-01T10:50:04;13.70;87.50
16243;DHT22;11719;51.052;6.982;2023-03-01T10:52:36;13.80;90.10
16243;DHT22;11719;51.052;6.982;2023-03-01T10:58:18;13.70;79.20
16243;DHT22;11719;51.052;6.982;2023-03-01T11:00:50;13.30;73.50
16243;DHT22;11719;51.052;6.982;2023-03-01T11:03:32;12.80;75.00
16243;DHT22;11719;51.052;6.982;2023-03-01T11:06:02;13.00;90.00
16243;DHT22;11719;51.052;6.982;2023-03-01T11:08:43;13.10;77.40
16243;DHT22;11719;51.052;6.982;2023-03-01T11:11:29;12.80;74.40
16243;DHT22;11719;51.052;6.982;2023-03-01T11:14:20;12.40;75.30
16243;DHT22;11719;51.052;6.982;2023-03-01T11:16:49;12.20;77.50
16243;DHT22;11719;51.052;6.982;2023-03-01T11:19:40;12.10;83.80
16243;DHT22;11719;51.052;6.982;2023-03-01T11:22:16;12.10;90.80
16243;DHT22;11719;51.052;6.982;2023-03-01T11:24:50;12.50;88.60
16243;DHT22;11719;51.052;6.982;2023-03-01T11:27:33;12.40;75.40
16243;DHT22;11719;51.052;6.982;2023-03-01T11:30:30;12.20;78.70
16243;DHT22;11719;51.052;6.982;2023-03-01T11:38:29;12.10;76.40
16243;DHT22;11719;51.052;6.982;2023-03-01T11:41:17;11.90;78.80
16243;DHT22;11719;51.052;6.982;2023-03-01T11:52:12;11.90;89.00
16243;DHT22;11719;51.052;6.982;2023-03-01T11:58:18;11.70;74.40
16243;DHT22;11719;51.052;6.982;2023-03-01T12:01:01;11.60;76.30
16243;DHT22;11719;51.052;6.982;2023-03-01T12:09:38;12.50;91.40
16243;DHT22;11719;51.052;6.982;2023-03-01T12:32:25;12.80;89.40
16243;DHT22;11719;51.052;6.982;2023-03-01T12:38:50;12.50;74.30
16243;DHT22;11719;51.052;6.982;2023-03-01T12:41:42;12.30;75.30
16243;DHT22;11719;51.052;6.982;2023-03-01T12:50:18;12.30;74.40
16243;DHT22;11719;51.052;6.982;2023-03-01T12:53:04;12.50;86.50
16243;DHT22;11719;51.052;6.982;2023-03-01T12:55:36;12.40;76.30
16243;DHT22;11719;51.052;6.982;2023-03-01T13:03:55;12.70;79.70
16243;DHT22;11719;51.052;6.982;2023-03-01T13:17:52;13.20;86.90
16243;DHT22;11719;51.052;6.982;2023-03-01T13:20:23;13.50;88.50
16243;DHT22;11719;51.052;6.982;2023-03-01T13:33:49;14.30;69.40
16243;DHT22;11719;51.052;6.982;2023-03-01T13:39:01;14.80;77.20
16243;DHT22;11719;51.052;6.982;2023-03-01T13:44:33;15.60;72.00
16243;DHT22;11719;51.052;6.982;2023-03-01T13:49:47;16.40;60.80
16243;DHT22;11719;51.052;6.982;2023-03-01T13:57:44;16.60;76.10
16243;DHT22;11719;51.052;6.982;2023-03-01T14:03:03;16.70;71.80
16243;DHT22;11719;51.052;6.982;2023-03-01T14:06:13;16.60;73.60
16243;DHT22;11719;51.052;6.982;2023-03-01T14:08:43;16.80;73.40
16243;DHT22;11719;51.052;6.982;2023-03-01T14:16:25;17.00;73.20
16243;DHT22;11719;51.052;6.982;2023-03-01T14:21:41;16.40;78.10
16243;DHT22;11719;51.052;6.982;2023-03-01T14:24:17;16.00;79.70
16243;DHT22;11719;51.052;6.982;2023-03-01T14:26:45;15.70;78.60
16243;DHT22;11719;51.052;6.982;2023-03-01T14:29:34;15.60;72.40
16243;DHT22;11719;51.052;6.982;2023-03-01T14:32:11;15.40;82.00
16243;DHT22;11719;51.052;6.982;2023-03-01T14:34:43;15.30;77.30
16243;DHT22;11719;51.052;6.982;2023-03-01T14:39:56;14.90;84.10
16243;DHT22;11719;51.052;6.982;2023-03-01T14:42:25;14.90;84.90
16243;DHT22;11719;51.052;6.982;2023-03-01T14:44:55;14.80;76.80
16243;DHT22;11719;51.052;6.982;2023-03-01T14:47:31;14.80;83.60
16243;DHT22;11719;51.052;6.982;2023-03-01T14:50:24;14.70;84.30
16243;DHT22;11719;51.052;6.982;2023-03-01T14:52:51;14.70;85.80
16243;DHT22;11719;51.052;6.982;2023-03-01T14:55:21;14.70;85.90
16243;DHT22;11719;51.052;6.982;2023-03-01T14:57:58;14.60;86.30
16243;DHT22;11719;51.052;6.982;2023-03-01T15:00:29;14.60;80.80
16243;DHT22;11719;51.052;6.982;2023-03-01T15:03:03;14.70;80.80
16243;DHT22;11719;51.052;6.982;2023-03-01T15:05:39;14.70;82.30
16243;DHT22;11719;51.052;6.982;2023-03-01T15:08:07;14.70;86.10
16243;DHT22;11719;51.052;6.982;2023-03-01T15:11:15;14.70;87.10
16243;DHT22;11719;51.052;6.982;2023-03-01T15:13:42;14.60;84.40
16243;DHT22;11719;51.052;6.982;2023-03-01T15:16:09;14.60;83.80
16243;DHT22;11719;51.052;6.982;2023-03-01T15:18:37;14.50;84.30
16243;DHT22;11719;51.052;6.982;2023-03-01T15:23:58;14.60;87.20
16243;DHT22;11719;51.052;6.982;2023-03-01T15:26:37;14.70;80.90
16243;DHT22;11719;51.052;6.982;2023-03-01T15:29:16;14.60;85.30
16243;DHT22;11719;51.052;6.982;2023-03-01T15:31:57;14.60;83.90
16243;DHT22;11719;51.052;6.982;2023-03-01T15:34:26;14.60;85.90
16243;DHT22;11719;51.052;6.982;2023-03-01T15:36:55;14.50;75.50
16243;DHT22;11719;51.052;6.982;2023-03-01T15:48:01;14.60;85.80
16243;DHT22;11719;51.052;6.982;2023-03-01T15:50:33;14.60;85.10
16243;DHT22;11719;51.052;6.982;2023-03-01T15:53:03;14.70;86.70
16243;DHT22;11719;51.052;6.982;2023-03-01T15:55:32;14.60;87.30
16243;DHT22;11719;51.052;6.982;2023-03-01T15:58:03;14.60;87.30
16243;DHT22;11719;51.052;6.982;2023-03-01T16:00:32;14.50;86.50
16243;DHT22;11719;51.052;6.982;2023-03-01T16:02:58;14.50;86.80
16243;DHT22;11719;51.052;6.982;2023-03-01T16:05:27;14.60;86.40
16243;DHT22;11719;51.052;6.982;2023-03-01T16:07:56;14.40;71.40
16243;DHT22;11719;51.052;6.982;2023-03-01T16:10:22;14.50;85.30
16243;DHT22;11719;51.052;6.982;2023-03-01T16:12:49;14.50;86.90
16243;DHT22;11719;51.052;6.982;2023-03-01T16:15:23;14.50;87.40
16243;DHT22;11719;51.052;6.982;2023-03-01T16:18:00;14.60;87.20
16243;DHT22;11719;51.052;6.982;2023-03-01T16:20:27;14.40;80.20
16243;DHT22;11719;51.052;6.982;2023-03-01T16:22:53;14.50;87.80
16243;DHT22;11719;51.052;6.982;2023-03-01T16:25:20;14.50;86.70
16243;DHT22;11719;51.052;6.982;2023-03-01T16:27:48;14.50;83.10
16243;DHT22;11719;51.052;6.982;2023-03-01T16:30:18;14.50;84.50
16243;DHT22;11719;51.052;6.982;2023-03-01T16:32:46;14.40;84.00
16243;DHT22;11719;51.052;6.982;2023-03-01T16:35:15;14.50;85.00
16243;DHT22;11719;51.052;6.982;2023-03-01T16:37:43;14.40;82.60
16243;DHT22;11719;51.052;6.982;2023-03-01T16:40:20;14.40;78.50
16243;DHT22;11719;51.052;6.982;2023-03-01T16:42:48;14.20;78.10
16243;DHT22;11719;51.052;6.982;2023-03-01T16:45:15;14.30;83.60
16243;DHT22;11719;51.052;6.982;2023-03-01T16:47:41;14.30;87.20
16243;DHT22;11719;51.052;6.982;2023-03-01T16:50:08;14.40;87.30
16243;DHT22;11719;51.052;6.982;2023-03-01T16:52:34;14.20;72.70
16243;DHT22;11719;51.052;6.982;2023-03-01T16:55:01;14.10;76.20
16243;DHT22;11719;51.052;6.982;2023-03-01T16:57:28;14.00;82.60
16243;DHT22;11719;51.052;6.982;2023-03-01T16:59:55;13.90;72.50
16243;DHT22;11719;51.052;6.982;2023-03-01T17:02:21;13.70;84.90
16243;DHT22;11719;51.052;6.982;2023-03-01T17:04:56;13.70;88.60
16243;DHT22;11719;51.052;6.982;2023-03-01T17:07:22;13.90;89.00
16243;DHT22;11719;51.052;6.982;2023-03-01T17:09:48;14.10;89.10
16243;DHT22;11719;51.052;6.982;2023-03-01T17:12:14;14.30;87.80
16243;DHT22;11719;51.052;6.982;2023-03-01T17:14:41;14.40;87.30
16243;DHT22;11719;51.052;6.982;2023-03-01T17:17:08;14.50;86.80
16243;DHT22;11719;51.052;6.982;2023-03-01T17:19:36;14.50;86.60
16243;DHT22;11719;51.052;6.982;2023-03-01T17:22:07;14.50;84.80
16243;DHT22;11719;51.052;6.982;2023-03-01T17:24:34;14.40;77.90
16243;DHT22;11719;51.052;6.982;2023-03-01T17:27:01;14.40;87.40
16243;DHT22;11719;51.052;6.982;2023-03-01T17:29:27;14.20;80.60
16243;DHT22;11719;51.052;6.982;2023-03-01T17:31:53;14.20;80.90
16243;DHT22;11719;51.052;6.982;2023-03-01T17:34:21;14.20;87.50
16243;DHT22;11719;51.052;6.982;2023-03-01T17:36:48;14.20;85.30
16243;DHT22;11719;51.052;6.982;2023-03-01T17:39:15;13.90;76.20
16243;DHT22;11719;51.052;6.982;2023-03-01T17:41:42;13.90;87.10
16243;DHT22;11719;51.052;6.982;2023-03-01T17:44:07;13.90;80.80
16243;DHT22;11719;51.052;6.982;2023-03-01T17:46:33;13.60;73.20
16243;DHT22;11719;51.052;6.982;2023-03-01T17:48:59;13.50;85.60
16243;DHT22;11719;51.052;6.982;2023-03-01T17:51:25;13.30;79.90
16243;DHT22;11719;51.052;6.982;2023-03-01T17:53:51;13.10;75.70
16243;DHT22;11719;51.052;6.982;2023-03-01T17:56:17;13.00;81.40
16243;DHT22;11719;51.052;6.982;2023-03-01T17:58:42;13.00;76.90
16243;DHT22;11719;51.052;6.982;2023-03-01T18:01:14;12.50;74.00
16243;DHT22;11719;51.052;6.982;2023-03-01T18:03:43;12.10;74.00
16243;DHT22;11719;51.052;6.982;2023-03-01T18:06:30;12.10;90.30
16243;DHT22;11719;51.052;6.982;2023-03-01T18:08:56;12.50;91.60
16243;DHT22;11719;51.052;6.982;2023-03-01T18:11:24;12.70;78.40
16243;DHT22;11719;51.052;6.982;2023-03-01T18:13:51;13.00;90.90
16243;DHT22;11719;51.052;6.982;2023-03-01T18:16:19;13.20;90.50
16243;DHT22;11719;51.052;6.982;2023-03-01T18:18:47;13.50;90.60
16243;DHT22;11719;51.052;6.982;2023-03-01T18:21:16;13.80;88.80
16243;DHT22;11719;51.052;6.982;2023-03-01T18:23:42;13.90;89.70
16243;DHT22;11719;51.052;6.982;2023-03-01T18:26:10;14.10;88.80
16243;DHT22;11719;51.052;6.982;2023-03-01T18:28:38;14.10;88.20
16243;DHT22;11719;51.052;6.982;2023-03-01T18:31:08;14.00;73.50
16243;DHT22;11719;51.052;6.982;2023-03-01T18:33:36;13.90;75.70
16243;DHT22;11719;51.052;6.982;2023-03-01T18:36:03;13.80;89.00
16243;DHT22;11719;51.052;6.982;2023-03-01T18:38:30;13.90;82.60